Airfield :
LOGIN :

Register | Disclaimer

   EN    FR    IT 

 










Legend :    VFR   Marginal VFR   IFR   Intensive IFR   Very Intensive IFR
Visi :
Ceiling :
>= 8 km
>= 3000ft
5 to 8 km
1000 to 3000 ft
1500m to 5 km
500 to 1000 ft
800 to 1500m
200 to 500 ft
< 800m
< 200 ft
Symbols :   Thunderstorms  Fog  Heavy snow  Heavy precipitations  Wind > 20 kt
SIGMETs :     Misc.  Thunderstorms  Icing  Turbulence  Mountain Waves  Volcanic Ashes






- Airport Elevation : 160 ft
- IATA code : FMO


EDDG - Münster Osnabrück Int.

CURRENT METAR :
  • 271850Z 17007KT 150V220 9999 FEW025 07/04 Q1001 NOSIG

EXPIRED METARs :
  • 271820Z 18007KT 9999 SCT023 07/05 Q1001 NOSIG
  • 271750Z 19007KT 150V220 9999 FEW022 08/05 Q1002 NOSIG
  • 271720Z 18006KT 150V210 9999 SCT022 08/06 Q1002 NOSIG
  • 271650Z 18006KT 150V210 9999 FEW014 SCT022 07/06 Q1002 NOSIG
  • 271620Z 19007KT 160V220 9999 -RA FEW008 SCT012 BKN025 08/06 Q1003 NOSIG
  • 271550Z 20008KT 160V240 8000 -RA FEW007 SCT010 BKN033 08/07 Q1003 NOSIG

TAF TAF EDDG
Valid from the 27 at 18:00 until the 28 at 18:00 UTC


271700Z 2718/2818 17008KT 9999 BKN020
TEMPO 2722/2802 RA BKN013
TEMPO 2802/2814 SHRA BKN015TCU
BECMG 2804/2806 23013KT
PROB30
TEMPO 2806/2811 27025G40KT TSGS BKN010CB
BECMG 2808/2811 25020G35KT
BECMG 2816/2818 23015G25KT



MET'MAP, your aeronautical weather chart ! - Copyright ORBIFLY December 2007 - Disclaimer

ORBIFLY MET'MAP TEAM :

Programming & Development : Alexandra Zaïnal
Concept & original design : Baudouin d'Aumeries
Assistance for programming : Marc-Olivier Méhu
Technical & hardware support : Manuel Goepfert

Contact : metmap@orbifly.com




SOURCES & CREDITS :

   NOAA